sensor_id;sensor_type;location;lat;lon;timestamp;P1;durP1;ratioP1;P2;durP2;ratioP2
66085;SDS011;52868;49.758;9.586;2023-02-10T00:01:03;18.88;;;6.57;;
66085;SDS011;52868;49.758;9.586;2023-02-10T00:03:30;20.73;;;6.78;;
66085;SDS011;52868;49.758;9.586;2023-02-10T00:05:57;23.40;;;6.30;;
66085;SDS011;52868;49.758;9.586;2023-02-10T00:08:24;21.92;;;7.88;;
66085;SDS011;52868;49.758;9.586;2023-02-10T00:10:50;29.02;;;8.43;;
66085;SDS011;52868;49.758;9.586;2023-02-10T00:13:16;21.00;;;7.15;;
66085;SDS011;52868;49.758;9.586;2023-02-10T00:15:42;21.50;;;7.15;;
66085;SDS011;52868;49.758;9.586;2023-02-10T00:18:07;18.48;;;7.72;;
66085;SDS011;52868;49.758;9.586;2023-02-10T00:20:34;22.15;;;7.20;;
66085;SDS011;52868;49.758;9.586;2023-02-10T00:23:00;19.35;;;7.38;;
66085;SDS011;52868;49.758;9.586;2023-02-10T00:25:25;20.50;;;8.20;;
66085;SDS011;52868;49.758;9.586;2023-02-10T00:27:51;22.38;;;6.90;;
66085;SDS011;52868;49.758;9.586;2023-02-10T00:30:16;20.38;;;7.65;;
66085;SDS011;52868;49.758;9.586;2023-02-10T00:32:42;17.38;;;6.70;;
66085;SDS011;52868;49.758;9.586;2023-02-10T00:35:08;22.38;;;7.88;;
66085;SDS011;52868;49.758;9.586;2023-02-10T00:37:34;20.50;;;6.82;;
66085;SDS011;52868;49.758;9.586;2023-02-10T00:40:00;29.08;;;7.88;;
66085;SDS011;52868;49.758;9.586;2023-02-10T00:42:28;21.52;;;8.02;;
66085;SDS011;52868;49.758;9.586;2023-02-10T00:44:54;23.03;;;7.77;;
66085;SDS011;52868;49.758;9.586;2023-02-10T00:47:20;20.65;;;7.35;;
66085;SDS011;52868;49.758;9.586;2023-02-10T00:49:47;16.13;;;6.30;;
66085;SDS011;52868;49.758;9.586;2023-02-10T00:52:13;23.40;;;7.18;;
66085;SDS011;52868;49.758;9.586;2023-02-10T00:54:39;17.45;;;6.60;;
66085;SDS011;52868;49.758;9.586;2023-02-10T00:57:04;22.52;;;6.82;;
66085;SDS011;52868;49.758;9.586;2023-02-10T00:59:30;27.17;;;8.52;;
66085;SDS011;52868;49.758;9.586;2023-02-10T01:01:56;16.23;;;5.63;;
66085;SDS011;52868;49.758;9.586;2023-02-10T01:04:21;16.50;;;6.80;;
66085;SDS011;52868;49.758;9.586;2023-02-10T01:06:47;12.10;;;5.28;;
66085;SDS011;52868;49.758;9.586;2023-02-10T01:09:12;20.67;;;7.25;;
66085;SDS011;52868;49.758;9.586;2023-02-10T01:11:38;22.85;;;6.80;;
66085;SDS011;52868;49.758;9.586;2023-02-10T01:14:04;23.15;;;7.82;;
66085;SDS011;52868;49.758;9.586;2023-02-10T01:16:30;24.35;;;7.70;;
66085;SDS011;52868;49.758;9.586;2023-02-10T01:18:58;20.33;;;6.80;;
66085;SDS011;52868;49.758;9.586;2023-02-10T01:21:25;22.23;;;7.68;;
66085;SDS011;52868;49.758;9.586;2023-02-10T01:23:50;19.23;;;7.57;;
66085;SDS011;52868;49.758;9.586;2023-02-10T01:26:16;13.73;;;6.32;;
66085;SDS011;52868;49.758;9.586;2023-02-10T01:28:42;22.65;;;8.13;;
66085;SDS011;52868;49.758;9.586;2023-02-10T01:31:09;22.63;;;6.55;;
66085;SDS011;52868;49.758;9.586;2023-02-10T01:33:39;19.92;;;7.30;;
66085;SDS011;52868;49.758;9.586;2023-02-10T01:36:07;15.48;;;6.53;;
66085;SDS011;52868;49.758;9.586;2023-02-10T01:38:40;24.67;;;8.65;;
66085;SDS011;52868;49.758;9.586;2023-02-10T01:41:07;24.25;;;7.43;;
66085;SDS011;52868;49.758;9.586;2023-02-10T01:43:51;18.92;;;6.43;;
66085;SDS011;52868;49.758;9.586;2023-02-10T01:46:19;21.90;;;7.65;;
66085;SDS011;52868;49.758;9.586;2023-02-10T01:48:44;22.15;;;7.45;;
66085;SDS011;52868;49.758;9.586;2023-02-10T01:51:10;21.95;;;7.90;;
66085;SDS011;52868;49.758;9.586;2023-02-10T01:53:37;24.23;;;7.10;;
66085;SDS011;52868;49.758;9.586;2023-02-10T01:56:05;22.73;;;7.03;;
66085;SDS011;52868;49.758;9.586;2023-02-10T01:58:32;28.58;;;8.48;;
66085;SDS011;52868;49.758;9.586;2023-02-10T02:00:59;19.98;;;6.82;;
66085;SDS011;52868;49.758;9.586;2023-02-10T02:03:25;29.80;;;9.38;;
66085;SDS011;52868;49.758;9.586;2023-02-10T02:05:51;30.38;;;8.52;;
66085;SDS011;52868;49.758;9.586;2023-02-10T02:08:22;22.55;;;7.30;;
66085;SDS011;52868;49.758;9.586;2023-02-10T02:30:54;20.92;;;6.82;;
66085;SDS011;52868;49.758;9.586;2023-02-10T02:36:03;23.05;;;7.85;;
66085;SDS011;52868;49.758;9.586;2023-02-10T02:38:37;20.98;;;7.47;;
66085;SDS011;52868;49.758;9.586;2023-02-10T02:41:04;25.88;;;6.82;;
66085;SDS011;52868;49.758;9.586;2023-02-10T02:43:30;25.40;;;7.15;;
66085;SDS011;52868;49.758;9.586;2023-02-10T02:46:00;18.95;;;6.82;;
66085;SDS011;52868;49.758;9.586;2023-02-10T02:53:40;23.33;;;7.18;;
66085;SDS011;52868;49.758;9.586;2023-02-10T03:01:41;19.88;;;7.38;;
66085;SDS011;52868;49.758;9.586;2023-02-10T03:04:15;21.00;;;8.07;;
66085;SDS011;52868;49.758;9.586;2023-02-10T03:06:41;20.20;;;7.57;;
66085;SDS011;52868;49.758;9.586;2023-02-10T03:09:08;19.85;;;7.38;;
66085;SDS011;52868;49.758;9.586;2023-02-10T03:11:33;19.40;;;7.13;;
66085;SDS011;52868;49.758;9.586;2023-02-10T03:13:59;17.90;;;7.47;;
66085;SDS011;52868;49.758;9.586;2023-02-10T03:16:25;20.27;;;7.72;;
66085;SDS011;52868;49.758;9.586;2023-02-10T03:18:50;20.65;;;7.55;;
66085;SDS011;52868;49.758;9.586;2023-02-10T03:21:16;16.40;;;6.47;;
66085;SDS011;52868;49.758;9.586;2023-02-10T03:23:42;19.45;;;7.13;;
66085;SDS011;52868;49.758;9.586;2023-02-10T03:26:08;20.05;;;6.65;;
66085;SDS011;52868;49.758;9.586;2023-02-10T03:28:34;26.13;;;7.55;;
66085;SDS011;52868;49.758;9.586;2023-02-10T03:31:03;23.23;;;7.15;;
66085;SDS011;52868;49.758;9.586;2023-02-10T03:33:30;17.20;;;6.65;;
66085;SDS011;52868;49.758;9.586;2023-02-10T03:35:56;24.13;;;7.38;;
66085;SDS011;52868;49.758;9.586;2023-02-10T03:38:23;19.73;;;6.85;;
66085;SDS011;52868;49.758;9.586;2023-02-10T03:40:50;15.07;;;6.18;;
66085;SDS011;52868;49.758;9.586;2023-02-10T03:43:17;25.85;;;8.45;;
66085;SDS011;52868;49.758;9.586;2023-02-10T03:45:44;25.00;;;7.13;;
66085;SDS011;52868;49.758;9.586;2023-02-10T03:48:10;22.50;;;8.20;;
66085;SDS011;52868;49.758;9.586;2023-02-10T03:50:36;19.92;;;7.85;;
66085;SDS011;52868;49.758;9.586;2023-02-10T03:53:02;24.13;;;8.00;;
66085;SDS011;52868;49.758;9.586;2023-02-10T03:55:29;21.92;;;7.65;;
66085;SDS011;52868;49.758;9.586;2023-02-10T03:57:55;30.55;;;8.13;;
66085;SDS011;52868;49.758;9.586;2023-02-10T04:00:22;21.38;;;7.55;;
66085;SDS011;52868;49.758;9.586;2023-02-10T04:02:48;26.77;;;8.32;;
66085;SDS011;52868;49.758;9.586;2023-02-10T04:05:14;23.42;;;8.27;;
66085;SDS011;52868;49.758;9.586;2023-02-10T04:07:40;25.67;;;8.15;;
66085;SDS011;52868;49.758;9.586;2023-02-10T04:10:06;24.38;;;7.55;;
66085;SDS011;52868;49.758;9.586;2023-02-10T04:12:32;23.40;;;8.57;;
66085;SDS011;52868;49.758;9.586;2023-02-10T04:14:58;24.67;;;7.80;;
66085;SDS011;52868;49.758;9.586;2023-02-10T04:17:23;24.20;;;8.15;;
66085;SDS011;52868;49.758;9.586;2023-02-10T04:19:49;22.80;;;8.00;;
66085;SDS011;52868;49.758;9.586;2023-02-10T04:22:15;30.45;;;8.52;;
66085;SDS011;52868;49.758;9.586;2023-02-10T04:24:41;16.30;;;6.97;;
66085;SDS011;52868;49.758;9.586;2023-02-10T04:27:06;18.00;;;8.15;;
66085;SDS011;52868;49.758;9.586;2023-02-10T04:29:32;21.45;;;7.68;;
66085;SDS011;52868;49.758;9.586;2023-02-10T04:31:58;25.80;;;7.45;;
66085;SDS011;52868;49.758;9.586;2023-02-10T04:34:24;23.65;;;7.30;;
66085;SDS011;52868;49.758;9.586;2023-02-10T04:36:50;24.23;;;7.43;;
66085;SDS011;52868;49.758;9.586;2023-02-10T04:39:16;22.35;;;8.15;;
66085;SDS011;52868;49.758;9.586;2023-02-10T04:41:41;24.52;;;8.10;;
66085;SDS011;52868;49.758;9.586;2023-02-10T04:44:07;32.08;;;8.50;;
66085;SDS011;52868;49.758;9.586;2023-02-10T04:46:33;20.25;;;7.13;;
66085;SDS011;52868;49.758;9.586;2023-02-10T04:48:58;28.88;;;7.78;;
66085;SDS011;52868;49.758;9.586;2023-02-10T04:51:24;24.73;;;8.35;;
66085;SDS011;52868;49.758;9.586;2023-02-10T04:53:50;22.35;;;6.72;;
66085;SDS011;52868;49.758;9.586;2023-02-10T04:56:15;20.30;;;7.90;;
66085;SDS011;52868;49.758;9.586;2023-02-10T04:58:41;36.40;;;9.93;;
66085;SDS011;52868;49.758;9.586;2023-02-10T05:01:07;30.00;;;9.25;;
66085;SDS011;52868;49.758;9.586;2023-02-10T05:03:33;25.52;;;7.97;;
66085;SDS011;52868;49.758;9.586;2023-02-10T05:05:59;31.27;;;9.23;;
66085;SDS011;52868;49.758;9.586;2023-02-10T05:08:29;29.02;;;8.15;;
66085;SDS011;52868;49.758;9.586;2023-02-10T05:10:55;22.73;;;7.88;;
66085;SDS011;52868;49.758;9.586;2023-02-10T05:13:21;15.07;;;6.78;;
66085;SDS011;52868;49.758;9.586;2023-02-10T05:15:47;19.77;;;6.82;;
66085;SDS011;52868;49.758;9.586;2023-02-10T05:18:13;21.90;;;7.68;;
66085;SDS011;52868;49.758;9.586;2023-02-10T05:20:39;20.80;;;7.35;;
66085;SDS011;52868;49.758;9.586;2023-02-10T05:23:05;24.13;;;7.30;;
66085;SDS011;52868;49.758;9.586;2023-02-10T05:25:31;25.05;;;8.45;;
66085;SDS011;52868;49.758;9.586;2023-02-10T05:27:56;21.52;;;6.50;;
66085;SDS011;52868;49.758;9.586;2023-02-10T05:30:22;23.83;;;7.90;;
66085;SDS011;52868;49.758;9.586;2023-02-10T05:32:48;17.13;;;6.38;;
66085;SDS011;52868;49.758;9.586;2023-02-10T05:35:14;25.40;;;9.32;;
66085;SDS011;52868;49.758;9.586;2023-02-10T05:37:40;19.73;;;7.43;;
66085;SDS011;52868;49.758;9.586;2023-02-10T05:40:05;23.08;;;8.50;;
66085;SDS011;52868;49.758;9.586;2023-02-10T05:42:31;28.85;;;8.52;;
66085;SDS011;52868;49.758;9.586;2023-02-10T05:44:57;28.98;;;8.73;;
66085;SDS011;52868;49.758;9.586;2023-02-10T05:47:23;28.02;;;9.00;;
66085;SDS011;52868;49.758;9.586;2023-02-10T05:49:48;21.55;;;7.57;;
66085;SDS011;52868;49.758;9.586;2023-02-10T05:52:14;24.08;;;8.00;;
66085;SDS011;52868;49.758;9.586;2023-02-10T05:54:40;22.02;;;8.02;;
66085;SDS011;52868;49.758;9.586;2023-02-10T05:57:06;28.40;;;8.57;;
66085;SDS011;52868;49.758;9.586;2023-02-10T05:59:31;27.10;;;9.98;;
66085;SDS011;52868;49.758;9.586;2023-02-10T06:01:57;25.63;;;8.43;;
66085;SDS011;52868;49.758;9.586;2023-02-10T06:04:23;29.40;;;8.65;;
66085;SDS011;52868;49.758;9.586;2023-02-10T06:06:49;22.98;;;7.68;;
66085;SDS011;52868;49.758;9.586;2023-02-10T06:09:15;22.20;;;7.45;;
66085;SDS011;52868;49.758;9.586;2023-02-10T06:11:41;29.52;;;8.73;;
66085;SDS011;52868;49.758;9.586;2023-02-10T06:14:06;24.58;;;8.38;;
66085;SDS011;52868;49.758;9.586;2023-02-10T06:16:32;34.03;;;8.40;;
66085;SDS011;52868;49.758;9.586;2023-02-10T06:18:58;16.98;;;7.22;;
66085;SDS011;52868;49.758;9.586;2023-02-10T06:21:24;22.38;;;8.45;;
66085;SDS011;52868;49.758;9.586;2023-02-10T06:23:50;26.60;;;8.38;;
66085;SDS011;52868;49.758;9.586;2023-02-10T06:26:16;24.52;;;8.88;;
66085;SDS011;52868;49.758;9.586;2023-02-10T06:28:42;19.42;;;7.78;;
66085;SDS011;52868;49.758;9.586;2023-02-10T06:31:08;28.55;;;9.00;;
66085;SDS011;52868;49.758;9.586;2023-02-10T06:33:34;28.70;;;9.32;;
66085;SDS011;52868;49.758;9.586;2023-02-10T06:36:01;27.73;;;8.73;;
66085;SDS011;52868;49.758;9.586;2023-02-10T06:38:34;31.70;;;8.35;;
66085;SDS011;52868;49.758;9.586;2023-02-10T06:41:01;22.80;;;8.50;;
66085;SDS011;52868;49.758;9.586;2023-02-10T06:43:27;30.88;;;8.43;;
66085;SDS011;52868;49.758;9.586;2023-02-10T06:45:53;38.90;;;9.43;;
66085;SDS011;52868;49.758;9.586;2023-02-10T06:48:19;27.35;;;8.95;;
66085;SDS011;52868;49.758;9.586;2023-02-10T06:50:44;29.17;;;9.15;;
66085;SDS011;52868;49.758;9.586;2023-02-10T06:53:10;26.90;;;9.32;;
66085;SDS011;52868;49.758;9.586;2023-02-10T06:55:36;29.92;;;9.50;;
66085;SDS011;52868;49.758;9.586;2023-02-10T06:58:02;36.58;;;11.82;;
66085;SDS011;52868;49.758;9.586;2023-02-10T07:00:28;27.13;;;8.52;;
66085;SDS011;52868;49.758;9.586;2023-02-10T07:02:57;25.38;;;9.05;;
66085;SDS011;52868;49.758;9.586;2023-02-10T07:05:23;25.75;;;8.07;;
66085;SDS011;52868;49.758;9.586;2023-02-10T07:07:50;20.83;;;8.48;;
66085;SDS011;52868;49.758;9.586;2023-02-10T07:10:16;28.52;;;10.05;;
66085;SDS011;52868;49.758;9.586;2023-02-10T07:12:43;27.75;;;9.35;;
66085;SDS011;52868;49.758;9.586;2023-02-10T07:15:09;26.15;;;8.27;;
66085;SDS011;52868;49.758;9.586;2023-02-10T07:17:35;22.88;;;8.10;;
66085;SDS011;52868;49.758;9.586;2023-02-10T07:20:01;28.52;;;8.00;;
66085;SDS011;52868;49.758;9.586;2023-02-10T07:22:29;23.15;;;8.43;;
66085;SDS011;52868;49.758;9.586;2023-02-10T07:24:54;25.15;;;9.07;;
66085;SDS011;52868;49.758;9.586;2023-02-10T07:27:21;23.58;;;8.10;;
66085;SDS011;52868;49.758;9.586;2023-02-10T07:29:47;32.38;;;9.85;;
66085;SDS011;52868;49.758;9.586;2023-02-10T07:32:13;32.17;;;9.68;;
66085;SDS011;52868;49.758;9.586;2023-02-10T07:34:39;25.33;;;8.15;;
66085;SDS011;52868;49.758;9.586;2023-02-10T07:37:05;20.25;;;8.20;;
66085;SDS011;52868;49.758;9.586;2023-02-10T07:39:31;28.80;;;7.35;;
66085;SDS011;52868;49.758;9.586;2023-02-10T07:41:57;24.30;;;8.55;;
66085;SDS011;52868;49.758;9.586;2023-02-10T07:44:23;44.13;;;13.55;;
66085;SDS011;52868;49.758;9.586;2023-02-10T07:46:51;28.67;;;9.80;;
66085;SDS011;52868;49.758;9.586;2023-02-10T07:49:17;24.48;;;9.65;;
66085;SDS011;52868;49.758;9.586;2023-02-10T07:51:43;23.48;;;8.55;;
66085;SDS011;52868;49.758;9.586;2023-02-10T07:54:10;30.35;;;9.13;;
66085;SDS011;52868;49.758;9.586;2023-02-10T07:56:35;30.80;;;10.90;;
66085;SDS011;52868;49.758;9.586;2023-02-10T07:59:01;33.10;;;11.43;;
66085;SDS011;52868;49.758;9.586;2023-02-10T08:01:27;46.22;;;15.50;;
66085;SDS011;52868;49.758;9.586;2023-02-10T08:03:53;38.97;;;12.05;;
66085;SDS011;52868;49.758;9.586;2023-02-10T08:06:20;38.83;;;11.43;;
66085;SDS011;52868;49.758;9.586;2023-02-10T08:08:47;39.78;;;12.02;;
66085;SDS011;52868;49.758;9.586;2023-02-10T08:11:13;29.70;;;10.27;;
66085;SDS011;52868;49.758;9.586;2023-02-10T08:13:39;41.13;;;12.13;;
66085;SDS011;52868;49.758;9.586;2023-02-10T08:16:05;33.83;;;11.68;;
66085;SDS011;52868;49.758;9.586;2023-02-10T08:18:33;33.33;;;10.85;;
66085;SDS011;52868;49.758;9.586;2023-02-10T08:20:59;27.35;;;10.70;;
66085;SDS011;52868;49.758;9.586;2023-02-10T08:23:26;33.25;;;10.45;;
66085;SDS011;52868;49.758;9.586;2023-02-10T08:25:52;29.63;;;12.10;;
66085;SDS011;52868;49.758;9.586;2023-02-10T08:28:17;29.27;;;10.90;;
66085;SDS011;52868;49.758;9.586;2023-02-10T08:30:43;29.27;;;9.77;;
66085;SDS011;52868;49.758;9.586;2023-02-10T08:33:09;29.70;;;10.75;;
66085;SDS011;52868;49.758;9.586;2023-02-10T08:35:36;25.80;;;10.18;;
66085;SDS011;52868;49.758;9.586;2023-02-10T08:38:02;30.63;;;10.30;;
66085;SDS011;52868;49.758;9.586;2023-02-10T08:40:32;32.33;;;11.13;;
66085;SDS011;52868;49.758;9.586;2023-02-10T08:42:58;32.22;;;11.25;;
66085;SDS011;52868;49.758;9.586;2023-02-10T08:45:24;40.65;;;14.20;;
66085;SDS011;52868;49.758;9.586;2023-02-10T08:47:50;35.47;;;11.73;;
66085;SDS011;52868;49.758;9.586;2023-02-10T08:50:15;33.85;;;11.45;;
66085;SDS011;52868;49.758;9.586;2023-02-10T08:52:41;27.45;;;10.35;;
66085;SDS011;52868;49.758;9.586;2023-02-10T08:55:07;34.20;;;10.95;;
66085;SDS011;52868;49.758;9.586;2023-02-10T08:57:33;37.75;;;11.48;;
66085;SDS011;52868;49.758;9.586;2023-02-10T08:59:59;30.90;;;9.25;;
66085;SDS011;52868;49.758;9.586;2023-02-10T09:02:25;26.70;;;9.63;;
66085;SDS011;52868;49.758;9.586;2023-02-10T09:04:51;28.38;;;10.32;;
66085;SDS011;52868;49.758;9.586;2023-02-10T09:07:17;27.15;;;9.25;;
66085;SDS011;52868;49.758;9.586;2023-02-10T09:09:43;29.75;;;10.65;;
66085;SDS011;52868;49.758;9.586;2023-02-10T09:12:09;35.47;;;10.27;;
66085;SDS011;52868;49.758;9.586;2023-02-10T09:14:37;27.15;;;9.20;;
66085;SDS011;52868;49.758;9.586;2023-02-10T09:17:04;31.08;;;9.15;;
66085;SDS011;52868;49.758;9.586;2023-02-10T09:19:30;33.08;;;9.88;;
66085;SDS011;52868;49.758;9.586;2023-02-10T09:21:56;25.13;;;8.82;;
66085;SDS011;52868;49.758;9.586;2023-02-10T09:24:21;29.00;;;9.55;;
66085;SDS011;52868;49.758;9.586;2023-02-10T09:26:48;25.85;;;9.75;;
66085;SDS011;52868;49.758;9.586;2023-02-10T09:29:14;25.05;;;9.35;;
66085;SDS011;52868;49.758;9.586;2023-02-10T09:31:40;28.33;;;9.18;;
66085;SDS011;52868;49.758;9.586;2023-02-10T09:34:06;29.40;;;9.32;;
66085;SDS011;52868;49.758;9.586;2023-02-10T09:36:32;27.63;;;9.27;;
66085;SDS011;52868;49.758;9.586;2023-02-10T09:38:58;22.38;;;8.77;;
66085;SDS011;52868;49.758;9.586;2023-02-10T09:41:31;27.80;;;9.73;;
66085;SDS011;52868;49.758;9.586;2023-02-10T09:52:13;28.15;;;9.63;;
66085;SDS011;52868;49.758;9.586;2023-02-10T09:54:54;45.45;;;18.27;;
66085;SDS011;52868;49.758;9.586;2023-02-10T09:57:22;31.90;;;10.77;;
66085;SDS011;52868;49.758;9.586;2023-02-10T09:59:52;28.77;;;9.75;;
66085;SDS011;52868;49.758;9.586;2023-02-10T10:02:28;25.13;;;9.10;;
66085;SDS011;52868;49.758;9.586;2023-02-10T10:06:11;28.52;;;10.60;;
66085;SDS011;52868;49.758;9.586;2023-02-10T10:10:55;23.00;;;9.73;;
66085;SDS011;52868;49.758;9.586;2023-02-10T10:13:27;24.67;;;9.20;;
66085;SDS011;52868;49.758;9.586;2023-02-10T10:16:01;26.13;;;9.50;;
66085;SDS011;52868;49.758;9.586;2023-02-10T10:18:41;27.95;;;8.90;;
66085;SDS011;52868;49.758;9.586;2023-02-10T10:21:41;22.52;;;8.38;;
66085;SDS011;52868;49.758;9.586;2023-02-10T10:24:36;24.60;;;9.32;;
66085;SDS011;52868;49.758;9.586;2023-02-10T10:29:44;33.75;;;10.02;;
66085;SDS011;52868;49.758;9.586;2023-02-10T10:32:38;29.73;;;10.20;;
66085;SDS011;52868;49.758;9.586;2023-02-10T10:35:16;38.30;;;10.98;;
66085;SDS011;52868;49.758;9.586;2023-02-10T10:37:49;32.53;;;9.90;;
66085;SDS011;52868;49.758;9.586;2023-02-10T10:40:25;32.97;;;11.13;;
66085;SDS011;52868;49.758;9.586;2023-02-10T10:42:56;31.30;;;11.80;;
66085;SDS011;52868;49.758;9.586;2023-02-10T10:45:33;32.25;;;11.07;;
66085;SDS011;52868;49.758;9.586;2023-02-10T10:48:12;27.75;;;10.70;;
66085;SDS011;52868;49.758;9.586;2023-02-10T10:50:40;26.58;;;9.40;;
66085;SDS011;52868;49.758;9.586;2023-02-10T10:53:19;30.52;;;9.82;;
66085;SDS011;52868;49.758;9.586;2023-02-10T10:55:56;32.33;;;9.93;;
66085;SDS011;52868;49.758;9.586;2023-02-10T10:58:26;37.67;;;11.80;;
66085;SDS011;52868;49.758;9.586;2023-02-10T11:00:57;25.48;;;9.43;;
66085;SDS011;52868;49.758;9.586;2023-02-10T11:03:24;31.17;;;9.90;;
66085;SDS011;52868;49.758;9.586;2023-02-10T11:06:09;26.17;;;9.73;;
66085;SDS011;52868;49.758;9.586;2023-02-10T11:08:45;27.25;;;10.07;;
66085;SDS011;52868;49.758;9.586;2023-02-10T11:11:19;30.07;;;11.07;;
66085;SDS011;52868;49.758;9.586;2023-02-10T11:14:13;27.90;;;10.00;;
66085;SDS011;52868;49.758;9.586;2023-02-10T11:17:02;25.67;;;9.68;;
66085;SDS011;52868;49.758;9.586;2023-02-10T11:19:31;30.40;;;10.07;;
66085;SDS011;52868;49.758;9.586;2023-02-10T11:21:58;27.17;;;10.07;;
66085;SDS011;52868;49.758;9.586;2023-02-10T11:24:28;22.00;;;8.98;;
66085;SDS011;52868;49.758;9.586;2023-02-10T11:27:04;31.15;;;11.95;;
66085;SDS011;52868;49.758;9.586;2023-02-10T11:29:33;25.90;;;9.93;;
66085;SDS011;52868;49.758;9.586;2023-02-10T11:32:05;24.80;;;9.77;;
66085;SDS011;52868;49.758;9.586;2023-02-10T11:34:32;29.00;;;9.85;;
66085;SDS011;52868;49.758;9.586;2023-02-10T11:37:18;26.08;;;9.77;;
66085;SDS011;52868;49.758;9.586;2023-02-10T11:39:46;30.85;;;10.05;;
66085;SDS011;52868;49.758;9.586;2023-02-10T11:42:17;19.55;;;9.13;;
66085;SDS011;52868;49.758;9.586;2023-02-10T11:44:55;27.95;;;10.30;;
66085;SDS011;52868;49.758;9.586;2023-02-10T11:47:25;37.33;;;11.60;;
66085;SDS011;52868;49.758;9.586;2023-02-10T11:49:52;25.70;;;10.10;;
66085;SDS011;52868;49.758;9.586;2023-02-10T11:52:18;24.63;;;9.77;;
66085;SDS011;52868;49.758;9.586;2023-02-10T11:54:47;29.45;;;10.02;;
66085;SDS011;52868;49.758;9.586;2023-02-10T11:57:30;26.13;;;9.27;;
66085;SDS011;52868;49.758;9.586;2023-02-10T12:00:27;30.63;;;10.60;;
66085;SDS011;52868;49.758;9.586;2023-02-10T12:14:56;33.08;;;8.32;;
66085;SDS011;52868;49.758;9.586;2023-02-10T12:43:15;27.05;;;8.85;;
66085;SDS011;52868;49.758;9.586;2023-02-10T12:49:12;27.73;;;10.18;;
66085;SDS011;52868;49.758;9.586;2023-02-10T12:51:59;23.27;;;8.57;;
66085;SDS011;52868;49.758;9.586;2023-02-10T12:54:52;22.27;;;8.75;;
66085;SDS011;52868;49.758;9.586;2023-02-10T12:57:33;27.42;;;8.95;;
66085;SDS011;52868;49.758;9.586;2023-02-10T13:00:27;23.02;;;8.55;;
66085;SDS011;52868;49.758;9.586;2023-02-10T13:03:01;23.38;;;8.40;;
66085;SDS011;52868;49.758;9.586;2023-02-10T13:05:36;23.60;;;8.23;;
66085;SDS011;52868;49.758;9.586;2023-02-10T13:08:15;22.90;;;8.57;;
66085;SDS011;52868;49.758;9.586;2023-02-10T13:10:48;25.15;;;8.43;;
66085;SDS011;52868;49.758;9.586;2023-02-10T13:13:24;28.42;;;9.50;;
66085;SDS011;52868;49.758;9.586;2023-02-10T13:18:28;25.92;;;8.02;;
66085;SDS011;52868;49.758;9.586;2023-02-10T13:23:36;24.00;;;8.43;;
66085;SDS011;52868;49.758;9.586;2023-02-10T13:26:17;28.33;;;8.10;;
66085;SDS011;52868;49.758;9.586;2023-02-10T13:34:51;26.75;;;8.93;;
66085;SDS011;52868;49.758;9.586;2023-02-10T13:37:22;21.88;;;8.32;;
66085;SDS011;52868;49.758;9.586;2023-02-10T13:39:55;29.13;;;7.90;;
66085;SDS011;52868;49.758;9.586;2023-02-10T13:42:38;26.55;;;8.80;;
66085;SDS011;52868;49.758;9.586;2023-02-10T13:52:50;16.90;;;6.80;;
66085;SDS011;52868;49.758;9.586;2023-02-10T13:58:46;25.77;;;8.57;;
66085;SDS011;52868;49.758;9.586;2023-02-10T14:00:52;26.55;;;8.05;;
66085;SDS011;52868;49.758;9.586;2023-02-10T14:03:20;25.63;;;8.77;;
66085;SDS011;52868;49.758;9.586;2023-02-10T14:08:39;22.65;;;8.15;;
66085;SDS011;52868;49.758;9.586;2023-02-10T14:13:39;23.88;;;8.45;;
66085;SDS011;52868;49.758;9.586;2023-02-10T14:18:38;19.52;;;8.13;;
66085;SDS011;52868;49.758;9.586;2023-02-10T14:21:10;30.40;;;8.30;;
66085;SDS011;52868;49.758;9.586;2023-02-10T14:23:51;19.33;;;7.20;;
66085;SDS011;52868;49.758;9.586;2023-02-10T14:26:32;23.17;;;8.07;;
66085;SDS011;52868;49.758;9.586;2023-02-10T14:29:01;25.58;;;8.63;;
66085;SDS011;52868;49.758;9.586;2023-02-10T14:31:29;20.35;;;7.15;;
66085;SDS011;52868;49.758;9.586;2023-02-10T14:34:03;22.73;;;7.18;;
66085;SDS011;52868;49.758;9.586;2023-02-10T14:36:48;20.33;;;7.45;;
66085;SDS011;52868;49.758;9.586;2023-02-10T14:39:19;18.33;;;7.82;;
66085;SDS011;52868;49.758;9.586;2023-02-10T14:41:50;23.20;;;7.60;;
66085;SDS011;52868;49.758;9.586;2023-02-10T14:47:32;23.08;;;7.78;;
66085;SDS011;52868;49.758;9.586;2023-02-10T14:50:00;25.00;;;8.47;;
66085;SDS011;52868;49.758;9.586;2023-02-10T14:52:29;22.90;;;9.02;;
66085;SDS011;52868;49.758;9.586;2023-02-10T14:57:23;17.80;;;7.20;;
66085;SDS011;52868;49.758;9.586;2023-02-10T14:59:57;23.38;;;7.88;;
66085;SDS011;52868;49.758;9.586;2023-02-10T15:02:28;26.17;;;8.13;;
66085;SDS011;52868;49.758;9.586;2023-02-10T15:04:56;23.75;;;7.57;;
66085;SDS011;52868;49.758;9.586;2023-02-10T15:07:28;27.23;;;8.50;;
66085;SDS011;52868;49.758;9.586;2023-02-10T15:10:45;20.92;;;7.80;;
66085;SDS011;52868;49.758;9.586;2023-02-10T15:12:55;19.25;;;7.57;;
66085;SDS011;52868;49.758;9.586;2023-02-10T15:17:50;17.75;;;7.07;;
66085;SDS011;52868;49.758;9.586;2023-02-10T15:20:21;25.48;;;7.85;;
66085;SDS011;52868;49.758;9.586;2023-02-10T15:28:17;21.65;;;7.38;;
66085;SDS011;52868;49.758;9.586;2023-02-10T15:31:02;23.00;;;8.32;;
66085;SDS011;52868;49.758;9.586;2023-02-10T15:36:08;23.15;;;7.80;;
66085;SDS011;52868;49.758;9.586;2023-02-10T15:38:42;20.83;;;7.50;;
66085;SDS011;52868;49.758;9.586;2023-02-10T15:41:15;21.75;;;7.68;;
66085;SDS011;52868;49.758;9.586;2023-02-10T15:46:43;17.35;;;6.97;;
66085;SDS011;52868;49.758;9.586;2023-02-10T15:49:14;21.92;;;7.88;;
66085;SDS011;52868;49.758;9.586;2023-02-10T15:51:43;23.30;;;8.38;;
66085;SDS011;52868;49.758;9.586;2023-02-10T15:54:18;22.05;;;8.13;;
66085;SDS011;52868;49.758;9.586;2023-02-10T15:56:59;28.90;;;8.90;;
66085;SDS011;52868;49.758;9.586;2023-02-10T15:59:26;21.00;;;7.78;;
66085;SDS011;52868;49.758;9.586;2023-02-10T16:04:23;19.15;;;7.82;;
66085;SDS011;52868;49.758;9.586;2023-02-10T16:06:49;27.20;;;9.88;;
66085;SDS011;52868;49.758;9.586;2023-02-10T16:09:15;24.58;;;8.65;;
66085;SDS011;52868;49.758;9.586;2023-02-10T16:11:41;25.58;;;8.05;;
66085;SDS011;52868;49.758;9.586;2023-02-10T16:14:07;24.77;;;7.43;;
66085;SDS011;52868;49.758;9.586;2023-02-10T16:16:33;27.88;;;7.85;;
66085;SDS011;52868;49.758;9.586;2023-02-10T16:19:03;27.75;;;8.20;;
66085;SDS011;52868;49.758;9.586;2023-02-10T16:21:29;24.90;;;7.60;;
66085;SDS011;52868;49.758;9.586;2023-02-10T16:23:54;28.88;;;9.45;;
66085;SDS011;52868;49.758;9.586;2023-02-10T16:26:22;23.35;;;7.85;;
66085;SDS011;52868;49.758;9.586;2023-02-10T16:28:49;23.58;;;7.65;;
66085;SDS011;52868;49.758;9.586;2023-02-10T16:31:15;25.63;;;9.25;;
66085;SDS011;52868;49.758;9.586;2023-02-10T16:33:44;20.83;;;8.37;;
66085;SDS011;52868;49.758;9.586;2023-02-10T16:36:14;21.98;;;9.20;;
66085;SDS011;52868;49.758;9.586;2023-02-10T16:38:45;28.95;;;9.07;;
66085;SDS011;52868;49.758;9.586;2023-02-10T16:41:11;19.73;;;7.75;;
66085;SDS011;52868;49.758;9.586;2023-02-10T16:43:36;22.23;;;8.52;;
66085;SDS011;52868;49.758;9.586;2023-02-10T16:46:02;28.15;;;9.32;;
66085;SDS011;52868;49.758;9.586;2023-02-10T16:48:28;22.10;;;8.52;;
66085;SDS011;52868;49.758;9.586;2023-02-10T16:50:54;20.20;;;7.35;;
66085;SDS011;52868;49.758;9.586;2023-02-10T16:53:19;24.83;;;9.52;;
66085;SDS011;52868;49.758;9.586;2023-02-10T16:55:45;29.08;;;9.52;;
66085;SDS011;52868;49.758;9.586;2023-02-10T16:58:12;27.48;;;9.90;;
66085;SDS011;52868;49.758;9.586;2023-02-10T17:00:40;27.27;;;10.20;;
66085;SDS011;52868;49.758;9.586;2023-02-10T17:03:06;27.65;;;9.38;;